sensor_id;sensor_type;location;lat;lon;timestamp;P1;durP1;ratioP1;P2;durP2;ratioP2
40088;SDS011;25793;55.706;13.186;2022-08-19T00:01:49;288.63;;;267.52;;
40088;SDS011;25793;55.706;13.186;2022-08-19T00:04:23;299.25;;;277.75;;
40088;SDS011;25793;55.706;13.186;2022-08-19T00:06:52;301.52;;;279.80;;
40088;SDS011;25793;55.706;13.186;2022-08-19T00:09:21;294.23;;;273.00;;
40088;SDS011;25793;55.706;13.186;2022-08-19T00:11:49;301.73;;;279.95;;
40088;SDS011;25793;55.706;13.186;2022-08-19T00:14:17;310.52;;;287.70;;
40088;SDS011;25793;55.706;13.186;2022-08-19T00:16:45;309.60;;;286.90;;
40088;SDS011;25793;55.706;13.186;2022-08-19T00:19:13;302.83;;;280.77;;
40088;SDS011;25793;55.706;13.186;2022-08-19T00:21:40;304.20;;;282.20;;
40088;SDS011;25793;55.706;13.186;2022-08-19T00:24:08;312.48;;;289.48;;
40088;SDS011;25793;55.706;13.186;2022-08-19T00:26:40;314.00;;;290.93;;
40088;SDS011;25793;55.706;13.186;2022-08-19T00:29:08;314.15;;;291.20;;
40088;SDS011;25793;55.706;13.186;2022-08-19T00:31:38;311.60;;;289.00;;
40088;SDS011;25793;55.706;13.186;2022-08-19T00:34:05;310.63;;;287.90;;
40088;SDS011;25793;55.706;13.186;2022-08-19T00:36:32;315.02;;;291.67;;
40088;SDS011;25793;55.706;13.186;2022-08-19T00:38:59;318.88;;;294.85;;
40088;SDS011;25793;55.706;13.186;2022-08-19T00:41:26;315.55;;;292.00;;
40088;SDS011;25793;55.706;13.186;2022-08-19T00:43:58;312.17;;;288.80;;
40088;SDS011;25793;55.706;13.186;2022-08-19T00:46:26;317.92;;;294.13;;
40088;SDS011;25793;55.706;13.186;2022-08-19T00:48:53;317.27;;;293.77;;
40088;SDS011;25793;55.706;13.186;2022-08-19T00:51:22;317.83;;;294.17;;
40088;SDS011;25793;55.706;13.186;2022-08-19T00:53:51;320.58;;;296.67;;
40088;SDS011;25793;55.706;13.186;2022-08-19T00:56:18;319.73;;;295.92;;
40088;SDS011;25793;55.706;13.186;2022-08-19T00:58:45;319.80;;;295.40;;
40088;SDS011;25793;55.706;13.186;2022-08-19T01:01:12;319.20;;;295.30;;
40088;SDS011;25793;55.706;13.186;2022-08-19T01:03:40;313.95;;;290.23;;
40088;SDS011;25793;55.706;13.186;2022-08-19T01:06:24;317.63;;;293.50;;
40088;SDS011;25793;55.706;13.186;2022-08-19T01:08:54;317.55;;;293.65;;
40088;SDS011;25793;55.706;13.186;2022-08-19T01:11:21;321.77;;;297.65;;
40088;SDS011;25793;55.706;13.186;2022-08-19T01:13:48;316.58;;;292.90;;
40088;SDS011;25793;55.706;13.186;2022-08-19T01:16:17;312.17;;;288.88;;
40088;SDS011;25793;55.706;13.186;2022-08-19T01:18:45;320.70;;;296.27;;
40088;SDS011;25793;55.706;13.186;2022-08-19T01:21:59;316.85;;;292.70;;
40088;SDS011;25793;55.706;13.186;2022-08-19T01:24:12;316.20;;;292.33;;
40088;SDS011;25793;55.706;13.186;2022-08-19T01:26:40;318.13;;;294.13;;
40088;SDS011;25793;55.706;13.186;2022-08-19T01:29:10;320.80;;;296.40;;
40088;SDS011;25793;55.706;13.186;2022-08-19T01:31:36;317.05;;;292.92;;
40088;SDS011;25793;55.706;13.186;2022-08-19T01:34:05;323.75;;;298.48;;
40088;SDS011;25793;55.706;13.186;2022-08-19T01:36:39;319.23;;;294.65;;
40088;SDS011;25793;55.706;13.186;2022-08-19T01:39:12;320.33;;;295.98;;
40088;SDS011;25793;55.706;13.186;2022-08-19T01:41:42;315.52;;;291.10;;
40088;SDS011;25793;55.706;13.186;2022-08-19T01:44:11;316.77;;;291.87;;
40088;SDS011;25793;55.706;13.186;2022-08-19T01:46:45;315.92;;;291.83;;
40088;SDS011;25793;55.706;13.186;2022-08-19T01:49:14;307.83;;;284.30;;
40088;SDS011;25793;55.706;13.186;2022-08-19T01:51:43;310.15;;;286.67;;
40088;SDS011;25793;55.706;13.186;2022-08-19T01:54:11;313.88;;;289.88;;
40088;SDS011;25793;55.706;13.186;2022-08-19T01:56:48;313.57;;;289.57;;
40088;SDS011;25793;55.706;13.186;2022-08-19T01:59:17;315.63;;;291.75;;
40088;SDS011;25793;55.706;13.186;2022-08-19T02:01:46;313.27;;;289.58;;
40088;SDS011;25793;55.706;13.186;2022-08-19T02:04:13;310.35;;;286.50;;
40088;SDS011;25793;55.706;13.186;2022-08-19T02:06:40;315.10;;;291.20;;
40088;SDS011;25793;55.706;13.186;2022-08-19T02:09:07;317.52;;;293.45;;
40088;SDS011;25793;55.706;13.186;2022-08-19T02:11:35;310.93;;;287.27;;
40088;SDS011;25793;55.706;13.186;2022-08-19T02:14:03;315.33;;;291.55;;
40088;SDS011;25793;55.706;13.186;2022-08-19T02:16:32;314.17;;;290.65;;
40088;SDS011;25793;55.706;13.186;2022-08-19T02:18:58;311.30;;;288.02;;
40088;SDS011;25793;55.706;13.186;2022-08-19T02:21:28;320.02;;;295.90;;
40088;SDS011;25793;55.706;13.186;2022-08-19T02:23:56;324.15;;;299.75;;
40088;SDS011;25793;55.706;13.186;2022-08-19T02:26:23;319.17;;;294.67;;
40088;SDS011;25793;55.706;13.186;2022-08-19T02:28:53;328.05;;;303.40;;
40088;SDS011;25793;55.706;13.186;2022-08-19T02:31:23;337.92;;;312.00;;
40088;SDS011;25793;55.706;13.186;2022-08-19T02:33:51;341.77;;;314.85;;
40088;SDS011;25793;55.706;13.186;2022-08-19T02:36:22;343.63;;;316.00;;
40088;SDS011;25793;55.706;13.186;2022-08-19T02:38:50;338.30;;;311.63;;
40088;SDS011;25793;55.706;13.186;2022-08-19T02:41:24;339.13;;;312.77;;
40088;SDS011;25793;55.706;13.186;2022-08-19T02:43:54;343.42;;;316.40;;
40088;SDS011;25793;55.706;13.186;2022-08-19T02:46:46;346.88;;;319.35;;
40088;SDS011;25793;55.706;13.186;2022-08-19T02:49:16;348.67;;;321.08;;
40088;SDS011;25793;55.706;13.186;2022-08-19T02:51:44;340.50;;;313.80;;
40088;SDS011;25793;55.706;13.186;2022-08-19T02:54:12;341.75;;;315.23;;
40088;SDS011;25793;55.706;13.186;2022-08-19T02:56:41;343.98;;;317.23;;
40088;SDS011;25793;55.706;13.186;2022-08-19T02:59:10;340.63;;;314.10;;
40088;SDS011;25793;55.706;13.186;2022-08-19T03:01:39;340.13;;;313.13;;
40088;SDS011;25793;55.706;13.186;2022-08-19T03:04:09;336.98;;;310.48;;
40088;SDS011;25793;55.706;13.186;2022-08-19T03:06:40;333.67;;;307.45;;
40088;SDS011;25793;55.706;13.186;2022-08-19T03:09:10;333.25;;;306.85;;
40088;SDS011;25793;55.706;13.186;2022-08-19T03:11:37;333.88;;;307.25;;
40088;SDS011;25793;55.706;13.186;2022-08-19T03:14:04;337.98;;;311.05;;
40088;SDS011;25793;55.706;13.186;2022-08-19T03:16:42;341.48;;;314.40;;
40088;SDS011;25793;55.706;13.186;2022-08-19T03:19:15;331.73;;;305.30;;
40088;SDS011;25793;55.706;13.186;2022-08-19T03:21:44;329.15;;;303.65;;
40088;SDS011;25793;55.706;13.186;2022-08-19T03:24:12;329.88;;;304.17;;
40088;SDS011;25793;55.706;13.186;2022-08-19T03:26:40;323.05;;;297.52;;
40088;SDS011;25793;55.706;13.186;2022-08-19T03:29:08;317.67;;;292.48;;
40088;SDS011;25793;55.706;13.186;2022-08-19T03:31:39;319.83;;;295.02;;
40088;SDS011;25793;55.706;13.186;2022-08-19T03:34:21;327.73;;;302.35;;
40088;SDS011;25793;55.706;13.186;2022-08-19T03:36:53;322.67;;;297.08;;
40088;SDS011;25793;55.706;13.186;2022-08-19T03:39:22;325.50;;;299.83;;
40088;SDS011;25793;55.706;13.186;2022-08-19T03:41:51;328.92;;;302.80;;
40088;SDS011;25793;55.706;13.186;2022-08-19T03:44:42;321.40;;;295.80;;
40088;SDS011;25793;55.706;13.186;2022-08-19T03:47:10;320.83;;;295.23;;
40088;SDS011;25793;55.706;13.186;2022-08-19T03:49:42;318.02;;;292.42;;
40088;SDS011;25793;55.706;13.186;2022-08-19T03:52:10;318.42;;;292.35;;
40088;SDS011;25793;55.706;13.186;2022-08-19T03:54:37;313.97;;;288.83;;
40088;SDS011;25793;55.706;13.186;2022-08-19T03:57:05;316.98;;;291.58;;
40088;SDS011;25793;55.706;13.186;2022-08-19T03:59:33;336.98;;;310.35;;
40088;SDS011;25793;55.706;13.186;2022-08-19T04:02:03;332.75;;;307.20;;
40088;SDS011;25793;55.706;13.186;2022-08-19T04:04:39;334.77;;;309.13;;
40088;SDS011;25793;55.706;13.186;2022-08-19T04:07:10;337.10;;;311.33;;
40088;SDS011;25793;55.706;13.186;2022-08-19T04:09:42;335.33;;;309.37;;
40088;SDS011;25793;55.706;13.186;2022-08-19T04:12:11;338.42;;;312.08;;
40088;SDS011;25793;55.706;13.186;2022-08-19T04:14:38;338.65;;;312.38;;
40088;SDS011;25793;55.706;13.186;2022-08-19T04:17:06;339.15;;;312.75;;
40088;SDS011;25793;55.706;13.186;2022-08-19T04:19:34;330.23;;;304.73;;
40088;SDS011;25793;55.706;13.186;2022-08-19T04:22:02;326.58;;;301.15;;
40088;SDS011;25793;55.706;13.186;2022-08-19T04:24:29;337.10;;;310.97;;
40088;SDS011;25793;55.706;13.186;2022-08-19T04:26:58;341.13;;;315.13;;
40088;SDS011;25793;55.706;13.186;2022-08-19T04:29:26;344.80;;;318.30;;
40088;SDS011;25793;55.706;13.186;2022-08-19T04:31:54;339.27;;;312.77;;
40088;SDS011;25793;55.706;13.186;2022-08-19T04:34:23;342.98;;;316.15;;
40088;SDS011;25793;55.706;13.186;2022-08-19T04:36:52;337.13;;;311.75;;
40088;SDS011;25793;55.706;13.186;2022-08-19T04:39:21;335.85;;;310.35;;
40088;SDS011;25793;55.706;13.186;2022-08-19T04:42:11;333.50;;;308.10;;
40088;SDS011;25793;55.706;13.186;2022-08-19T04:44:57;334.23;;;309.13;;
40088;SDS011;25793;55.706;13.186;2022-08-19T04:47:25;336.33;;;310.33;;
40088;SDS011;25793;55.706;13.186;2022-08-19T04:50:14;326.67;;;301.10;;
40088;SDS011;25793;55.706;13.186;2022-08-19T04:52:44;333.60;;;308.33;;
40088;SDS011;25793;55.706;13.186;2022-08-19T04:55:13;334.37;;;309.23;;
40088;SDS011;25793;55.706;13.186;2022-08-19T04:57:40;326.60;;;301.55;;
40088;SDS011;25793;55.706;13.186;2022-08-19T05:00:08;333.13;;;307.85;;
40088;SDS011;25793;55.706;13.186;2022-08-19T05:02:36;342.75;;;316.73;;
40088;SDS011;25793;55.706;13.186;2022-08-19T05:05:03;346.42;;;320.10;;
40088;SDS011;25793;55.706;13.186;2022-08-19T05:07:33;341.40;;;315.03;;
40088;SDS011;25793;55.706;13.186;2022-08-19T05:10:00;340.48;;;314.23;;
40088;SDS011;25793;55.706;13.186;2022-08-19T05:12:27;338.50;;;312.80;;
40088;SDS011;25793;55.706;13.186;2022-08-19T05:14:57;336.10;;;310.93;;
40088;SDS011;25793;55.706;13.186;2022-08-19T05:17:25;335.10;;;309.63;;
40088;SDS011;25793;55.706;13.186;2022-08-19T05:19:57;335.13;;;309.33;;
40088;SDS011;25793;55.706;13.186;2022-08-19T05:22:43;343.65;;;317.35;;
40088;SDS011;25793;55.706;13.186;2022-08-19T05:25:13;334.33;;;309.10;;
40088;SDS011;25793;55.706;13.186;2022-08-19T05:27:44;333.77;;;308.65;;
40088;SDS011;25793;55.706;13.186;2022-08-19T05:30:12;330.77;;;305.58;;
40088;SDS011;25793;55.706;13.186;2022-08-19T05:32:40;313.08;;;289.08;;
40088;SDS011;25793;55.706;13.186;2022-08-19T05:35:08;328.08;;;303.20;;
40088;SDS011;25793;55.706;13.186;2022-08-19T05:37:38;322.30;;;297.90;;
40088;SDS011;25793;55.706;13.186;2022-08-19T05:40:09;321.08;;;296.85;;
40088;SDS011;25793;55.706;13.186;2022-08-19T05:42:36;320.40;;;296.50;;
40088;SDS011;25793;55.706;13.186;2022-08-19T05:45:03;323.95;;;299.85;;
40088;SDS011;25793;55.706;13.186;2022-08-19T05:47:31;321.23;;;296.92;;
40088;SDS011;25793;55.706;13.186;2022-08-19T05:50:03;316.13;;;292.20;;
40088;SDS011;25793;55.706;13.186;2022-08-19T05:55:41;315.83;;;292.73;;
40088;SDS011;25793;55.706;13.186;2022-08-19T05:58:33;300.20;;;278.02;;
40088;SDS011;25793;55.706;13.186;2022-08-19T06:01:01;311.90;;;288.65;;
40088;SDS011;25793;55.706;13.186;2022-08-19T06:03:32;308.43;;;285.87;;
40088;SDS011;25793;55.706;13.186;2022-08-19T06:06:03;302.20;;;280.10;;
40088;SDS011;25793;55.706;13.186;2022-08-19T06:33:31;284.93;;;264.57;;
40088;SDS011;25793;55.706;13.186;2022-08-19T06:35:58;284.67;;;264.63;;
40088;SDS011;25793;55.706;13.186;2022-08-19T06:38:25;273.40;;;254.60;;
40088;SDS011;25793;55.706;13.186;2022-08-19T06:41:00;262.30;;;244.47;;
40088;SDS011;25793;55.706;13.186;2022-08-19T06:43:33;264.30;;;246.30;;
40088;SDS011;25793;55.706;13.186;2022-08-19T06:46:11;265.25;;;246.95;;
40088;SDS011;25793;55.706;13.186;2022-08-19T06:48:42;267.25;;;248.98;;
40088;SDS011;25793;55.706;13.186;2022-08-19T06:51:11;262.50;;;244.70;;
40088;SDS011;25793;55.706;13.186;2022-08-19T06:53:45;265.15;;;247.35;;
40088;SDS011;25793;55.706;13.186;2022-08-19T06:56:18;252.63;;;235.73;;
40088;SDS011;25793;55.706;13.186;2022-08-19T06:58:49;244.88;;;228.32;;
40088;SDS011;25793;55.706;13.186;2022-08-19T07:01:19;250.77;;;234.27;;
40088;SDS011;25793;55.706;13.186;2022-08-19T07:03:46;250.43;;;233.95;;
40088;SDS011;25793;55.706;13.186;2022-08-19T07:06:15;242.40;;;226.32;;
40088;SDS011;25793;55.706;13.186;2022-08-19T07:09:04;256.00;;;239.10;;
40088;SDS011;25793;55.706;13.186;2022-08-19T07:11:32;248.73;;;232.20;;
40088;SDS011;25793;55.706;13.186;2022-08-19T07:14:00;248.73;;;231.98;;
40088;SDS011;25793;55.706;13.186;2022-08-19T07:16:28;245.98;;;229.68;;
40088;SDS011;25793;55.706;13.186;2022-08-19T07:18:55;246.32;;;229.63;;
40088;SDS011;25793;55.706;13.186;2022-08-19T07:21:24;261.07;;;243.53;;
40088;SDS011;25793;55.706;13.186;2022-08-19T07:23:56;235.65;;;219.88;;
40088;SDS011;25793;55.706;13.186;2022-08-19T07:26:31;232.45;;;216.75;;
40088;SDS011;25793;55.706;13.186;2022-08-19T07:29:07;238.32;;;222.65;;
40088;SDS011;25793;55.706;13.186;2022-08-19T07:31:34;230.52;;;214.90;;
40088;SDS011;25793;55.706;13.186;2022-08-19T07:34:04;240.77;;;224.48;;
40088;SDS011;25793;55.706;13.186;2022-08-19T07:36:39;248.23;;;231.25;;
40088;SDS011;25793;55.706;13.186;2022-08-19T07:39:13;250.57;;;233.88;;
40088;SDS011;25793;55.706;13.186;2022-08-19T07:41:45;244.30;;;228.40;;
40088;SDS011;25793;55.706;13.186;2022-08-19T07:44:14;229.57;;;214.67;;
40088;SDS011;25793;55.706;13.186;2022-08-19T07:46:44;220.57;;;206.37;;
40088;SDS011;25793;55.706;13.186;2022-08-19T07:49:15;230.70;;;215.85;;
40088;SDS011;25793;55.706;13.186;2022-08-19T07:51:59;221.43;;;207.15;;
40088;SDS011;25793;55.706;13.186;2022-08-19T07:54:30;218.98;;;205.18;;
40088;SDS011;25793;55.706;13.186;2022-08-19T07:57:00;224.70;;;210.57;;
40088;SDS011;25793;55.706;13.186;2022-08-19T07:59:27;217.90;;;204.52;;
40088;SDS011;25793;55.706;13.186;2022-08-19T08:01:55;209.95;;;197.05;;
40088;SDS011;25793;55.706;13.186;2022-08-19T08:04:24;214.93;;;201.43;;
40088;SDS011;25793;55.706;13.186;2022-08-19T08:07:09;208.95;;;195.82;;
40088;SDS011;25793;55.706;13.186;2022-08-19T08:09:57;198.95;;;186.85;;
40088;SDS011;25793;55.706;13.186;2022-08-19T08:12:31;193.10;;;181.23;;
40088;SDS011;25793;55.706;13.186;2022-08-19T08:15:04;201.00;;;188.95;;
40088;SDS011;25793;55.706;13.186;2022-08-19T08:17:38;194.63;;;182.68;;
40088;SDS011;25793;55.706;13.186;2022-08-19T08:20:16;185.77;;;174.38;;
40088;SDS011;25793;55.706;13.186;2022-08-19T08:22:44;211.75;;;198.38;;
40088;SDS011;25793;55.706;13.186;2022-08-19T08:25:31;213.27;;;199.60;;
40088;SDS011;25793;55.706;13.186;2022-08-19T08:28:00;220.35;;;206.32;;
40088;SDS011;25793;55.706;13.186;2022-08-19T08:30:28;218.30;;;204.50;;
40088;SDS011;25793;55.706;13.186;2022-08-19T08:32:59;209.73;;;196.68;;
40088;SDS011;25793;55.706;13.186;2022-08-19T08:35:28;201.68;;;189.07;;
40088;SDS011;25793;55.706;13.186;2022-08-19T08:37:55;203.85;;;191.05;;
40088;SDS011;25793;55.706;13.186;2022-08-19T08:40:26;213.43;;;200.10;;
40088;SDS011;25793;55.706;13.186;2022-08-19T08:43:04;223.77;;;209.53;;
40088;SDS011;25793;55.706;13.186;2022-08-19T08:46:02;213.88;;;200.50;;
40088;SDS011;25793;55.706;13.186;2022-08-19T08:51:10;212.30;;;198.88;;
40088;SDS011;25793;55.706;13.186;2022-08-19T08:53:46;202.57;;;189.85;;
40088;SDS011;25793;55.706;13.186;2022-08-19T08:56:21;214.85;;;201.35;;
40088;SDS011;25793;55.706;13.186;2022-08-19T08:59:04;221.80;;;207.52;;
40088;SDS011;25793;55.706;13.186;2022-08-19T09:01:36;220.57;;;206.20;;
40088;SDS011;25793;55.706;13.186;2022-08-19T09:04:04;222.75;;;208.45;;
40088;SDS011;25793;55.706;13.186;2022-08-19T09:06:47;216.48;;;202.52;;
40088;SDS011;25793;55.706;13.186;2022-08-19T09:12:44;208.88;;;195.48;;
40088;SDS011;25793;55.706;13.186;2022-08-19T09:14:55;207.45;;;194.40;;
40088;SDS011;25793;55.706;13.186;2022-08-19T09:17:27;196.63;;;184.75;;
40088;SDS011;25793;55.706;13.186;2022-08-19T09:20:06;183.20;;;172.38;;
40088;SDS011;25793;55.706;13.186;2022-08-19T09:22:43;189.45;;;177.95;;
40088;SDS011;25793;55.706;13.186;2022-08-19T09:25:12;175.95;;;165.65;;
40088;SDS011;25793;55.706;13.186;2022-08-19T09:27:50;176.25;;;165.82;;
40088;SDS011;25793;55.706;13.186;2022-08-19T09:30:22;137.25;;;129.68;;
40088;SDS011;25793;55.706;13.186;2022-08-19T09:32:50;152.32;;;143.88;;
40088;SDS011;25793;55.706;13.186;2022-08-19T09:35:25;123.95;;;117.22;;
40088;SDS011;25793;55.706;13.186;2022-08-19T09:37:54;124.28;;;117.30;;
40088;SDS011;25793;55.706;13.186;2022-08-19T09:40:28;127.73;;;120.93;;
40088;SDS011;25793;55.706;13.186;2022-08-19T09:43:03;133.02;;;125.53;;
40088;SDS011;25793;55.706;13.186;2022-08-19T09:45:38;101.35;;;95.85;;
40088;SDS011;25793;55.706;13.186;2022-08-19T09:48:05;99.97;;;94.38;;
40088;SDS011;25793;55.706;13.186;2022-08-19T09:50:34;99.28;;;93.63;;
40088;SDS011;25793;55.706;13.186;2022-08-19T09:53:17;99.70;;;93.90;;
40088;SDS011;25793;55.706;13.186;2022-08-19T09:55:44;120.72;;;114.22;;
40088;SDS011;25793;55.706;13.186;2022-08-19T09:58:11;117.80;;;111.50;;
40088;SDS011;25793;55.706;13.186;2022-08-19T10:00:38;122.68;;;116.05;;
40088;SDS011;25793;55.706;13.186;2022-08-19T10:03:05;145.23;;;137.38;;
40088;SDS011;25793;55.706;13.186;2022-08-19T10:05:33;135.50;;;128.00;;
40088;SDS011;25793;55.706;13.186;2022-08-19T10:08:54;136.57;;;129.18;;
40088;SDS011;25793;55.706;13.186;2022-08-19T10:11:16;144.50;;;136.60;;
40088;SDS011;25793;55.706;13.186;2022-08-19T10:14:00;140.95;;;133.30;;
40088;SDS011;25793;55.706;13.186;2022-08-19T10:16:27;158.20;;;149.45;;
40088;SDS011;25793;55.706;13.186;2022-08-19T10:18:56;150.50;;;142.25;;
40088;SDS011;25793;55.706;13.186;2022-08-19T10:21:28;160.55;;;151.48;;
40088;SDS011;25793;55.706;13.186;2022-08-19T10:23:58;175.35;;;165.07;;
40088;SDS011;25793;55.706;13.186;2022-08-19T10:26:27;180.63;;;170.18;;
40088;SDS011;25793;55.706;13.186;2022-08-19T10:28:56;188.93;;;177.73;;
40088;SDS011;25793;55.706;13.186;2022-08-19T10:31:25;185.82;;;174.82;;
40088;SDS011;25793;55.706;13.186;2022-08-19T10:34:13;189.23;;;178.23;;
40088;SDS011;25793;55.706;13.186;2022-08-19T10:36:53;177.73;;;166.18;;
40088;SDS011;25793;55.706;13.186;2022-08-19T10:39:28;173.40;;;163.45;;
40088;SDS011;25793;55.706;13.186;2022-08-19T10:42:06;168.30;;;158.50;;
40088;SDS011;25793;55.706;13.186;2022-08-19T10:44:33;174.30;;;164.03;;
40088;SDS011;25793;55.706;13.186;2022-08-19T10:47:02;189.77;;;178.50;;
40088;SDS011;25793;55.706;13.186;2022-08-19T10:49:43;192.30;;;180.60;;
40088;SDS011;25793;55.706;13.186;2022-08-19T10:52:37;201.18;;;188.98;;
40088;SDS011;25793;55.706;13.186;2022-08-19T10:55:04;214.25;;;200.65;;
40088;SDS011;25793;55.706;13.186;2022-08-19T10:57:55;226.50;;;211.98;;
40088;SDS011;25793;55.706;13.186;2022-08-19T11:00:28;241.70;;;225.48;;
40088;SDS011;25793;55.706;13.186;2022-08-19T11:02:57;230.80;;;215.68;;
40088;SDS011;25793;55.706;13.186;2022-08-19T11:05:24;221.33;;;207.13;;
40088;SDS011;25793;55.706;13.186;2022-08-19T11:07:50;219.90;;;205.90;;
40088;SDS011;25793;55.706;13.186;2022-08-19T11:10:18;225.32;;;210.68;;
40088;SDS011;25793;55.706;13.186;2022-08-19T11:12:50;231.13;;;216.32;;
40088;SDS011;25793;55.706;13.186;2022-08-19T11:15:21;211.30;;;198.25;;
40088;SDS011;25793;55.706;13.186;2022-08-19T11:17:48;196.00;;;184.00;;
40088;SDS011;25793;55.706;13.186;2022-08-19T11:20:15;206.60;;;193.90;;
40088;SDS011;25793;55.706;13.186;2022-08-19T11:22:42;216.07;;;202.60;;
40088;SDS011;25793;55.706;13.186;2022-08-19T11:25:09;199.77;;;187.43;;
40088;SDS011;25793;55.706;13.186;2022-08-19T11:27:38;211.35;;;198.18;;
40088;SDS011;25793;55.706;13.186;2022-08-19T11:30:08;188.30;;;176.70;;
40088;SDS011;25793;55.706;13.186;2022-08-19T11:32:39;189.48;;;178.15;;
40088;SDS011;25793;55.706;13.186;2022-08-19T11:35:13;187.00;;;176.02;;
40088;SDS011;25793;55.706;13.186;2022-08-19T11:37:40;186.93;;;175.75;;
40088;SDS011;25793;55.706;13.186;2022-08-19T11:40:07;184.52;;;173.45;;
40088;SDS011;25793;55.706;13.186;2022-08-19T11:42:35;206.80;;;194.40;;
40088;SDS011;25793;55.706;13.186;2022-08-19T11:45:20;202.17;;;189.33;;
40088;SDS011;25793;55.706;13.186;2022-08-19T11:47:46;199.60;;;187.32;;
40088;SDS011;25793;55.706;13.186;2022-08-19T11:50:14;235.85;;;220.45;;
40088;SDS011;25793;55.706;13.186;2022-08-19T11:52:42;214.77;;;201.40;;
40088;SDS011;25793;55.706;13.186;2022-08-19T11:55:11;220.67;;;206.87;;
40088;SDS011;25793;55.706;13.186;2022-08-19T11:57:40;227.45;;;213.10;;
40088;SDS011;25793;55.706;13.186;2022-08-19T12:00:10;245.77;;;229.68;;
40088;SDS011;25793;55.706;13.186;2022-08-19T12:02:39;251.05;;;234.35;;
40088;SDS011;25793;55.706;13.186;2022-08-19T12:05:07;259.17;;;241.65;;
40088;SDS011;25793;55.706;13.186;2022-08-19T12:07:38;267.35;;;249.07;;
40088;SDS011;25793;55.706;13.186;2022-08-19T12:10:05;261.63;;;243.90;;
40088;SDS011;25793;55.706;13.186;2022-08-19T12:12:36;288.20;;;268.40;;
40088;SDS011;25793;55.706;13.186;2022-08-19T12:15:09;280.45;;;260.58;;
40088;SDS011;25793;55.706;13.186;2022-08-19T12:17:37;274.52;;;255.35;;
40088;SDS011;25793;55.706;13.186;2022-08-19T12:20:04;283.65;;;263.77;;
40088;SDS011;25793;55.706;13.186;2022-08-19T12:22:32;298.70;;;277.40;;
40088;SDS011;25793;55.706;13.186;2022-08-19T12:24:59;295.63;;;274.37;;
40088;SDS011;25793;55.706;13.186;2022-08-19T12:27:26;301.92;;;280.38;;
40088;SDS011;25793;55.706;13.186;2022-08-19T12:30:06;312.23;;;289.58;;
40088;SDS011;25793;55.706;13.186;2022-08-19T12:32:38;315.73;;;292.85;;
40088;SDS011;25793;55.706;13.186;2022-08-19T12:35:06;331.20;;;307.10;;
40088;SDS011;25793;55.706;13.186;2022-08-19T12:37:34;326.50;;;302.85;;
40088;SDS011;25793;55.706;13.186;2022-08-19T12:40:01;334.27;;;309.93;;
40088;SDS011;25793;55.706;13.186;2022-08-19T12:42:29;332.15;;;307.88;;
40088;SDS011;25793;55.706;13.186;2022-08-19T12:44:56;330.60;;;306.13;;
40088;SDS011;25793;55.706;13.186;2022-08-19T12:47:26;338.75;;;313.95;;
40088;SDS011;25793;55.706;13.186;2022-08-19T12:49:53;333.80;;;308.92;;
40088;SDS011;25793;55.706;13.186;2022-08-19T12:52:25;338.45;;;313.08;;
40088;SDS011;25793;55.706;13.186;2022-08-19T12:54:53;338.55;;;312.77;;
40088;SDS011;25793;55.706;13.186;2022-08-19T12:57:23;339.05;;;313.60;;
40088;SDS011;25793;55.706;13.186;2022-08-19T13:00:03;324.77;;;300.35;;
40088;SDS011;25793;55.706;13.186;2022-08-19T13:02:37;326.25;;;301.67;;
40088;SDS011;25793;55.706;13.186;2022-08-19T13:05:05;321.33;;;297.27;;
40088;SDS011;25793;55.706;13.186;2022-08-19T13:07:34;329.08;;;304.95;;
40088;SDS011;25793;55.706;13.186;2022-08-19T13:10:05;309.70;;;286.60;;
40088;SDS011;25793;55.706;13.186;2022-08-19T13:12:33;309.85;;;286.88;;
40088;SDS011;25793;55.706;13.186;2022-08-19T13:15:00;312.03;;;288.43;;
40088;SDS011;25793;55.706;13.186;2022-08-19T13:17:28;314.77;;;291.58;;
40088;SDS011;25793;55.706;13.186;2022-08-19T13:19:54;308.97;;;285.67;;
40088;SDS011;25793;55.706;13.186;2022-08-19T13:22:21;326.25;;;301.90;;
40088;SDS011;25793;55.706;13.186;2022-08-19T13:24:48;311.67;;;288.27;;
40088;SDS011;25793;55.706;13.186;2022-08-19T13:27:14;315.93;;;292.13;;
40088;SDS011;25793;55.706;13.186;2022-08-19T13:29:44;316.05;;;292.40;;
40088;SDS011;25793;55.706;13.186;2022-08-19T13:32:29;305.17;;;282.27;;
40088;SDS011;25793;55.706;13.186;2022-08-19T13:35:15;315.00;;;291.48;;
40088;SDS011;25793;55.706;13.186;2022-08-19T13:37:43;315.10;;;291.83;;
40088;SDS011;25793;55.706;13.186;2022-08-19T13:40:12;299.02;;;276.48;;
40088;SDS011;25793;55.706;13.186;2022-08-19T13:42:50;289.48;;;268.05;;
40088;SDS011;25793;55.706;13.186;2022-08-19T13:45:23;292.65;;;271.17;;
40088;SDS011;25793;55.706;13.186;2022-08-19T13:47:52;303.95;;;281.52;;
40088;SDS011;25793;55.706;13.186;2022-08-19T13:50:29;305.13;;;282.48;;
40088;SDS011;25793;55.706;13.186;2022-08-19T13:52:57;305.77;;;283.27;;
40088;SDS011;25793;55.706;13.186;2022-08-19T13:55:25;309.40;;;286.90;;
40088;SDS011;25793;55.706;13.186;2022-08-19T13:57:55;309.33;;;286.50;;
40088;SDS011;25793;55.706;13.186;2022-08-19T14:00:25;315.60;;;292.70;;
40088;SDS011;25793;55.706;13.186;2022-08-19T14:02:54;311.15;;;288.25;;
40088;SDS011;25793;55.706;13.186;2022-08-19T14:05:23;312.88;;;289.77;;
40088;SDS011;25793;55.706;13.186;2022-08-19T14:07:51;314.70;;;291.75;;
40088;SDS011;25793;55.706;13.186;2022-08-19T14:10:19;309.40;;;287.15;;
40088;SDS011;25793;55.706;13.186;2022-08-19T14:12:47;312.45;;;289.85;;
40088;SDS011;25793;55.706;13.186;2022-08-19T14:15:14;300.20;;;278.30;;
40088;SDS011;25793;55.706;13.186;2022-08-19T14:17:43;301.48;;;279.60;;
40088;SDS011;25793;55.706;13.186;2022-08-19T14:20:11;297.30;;;276.55;;
40088;SDS011;25793;55.706;13.186;2022-08-19T14:22:47;294.77;;;273.65;;
40088;SDS011;25793;55.706;13.186;2022-08-19T14:25:18;303.10;;;280.73;;
40088;SDS011;25793;55.706;13.186;2022-08-19T14:27:47;317.55;;;293.98;;
40088;SDS011;25793;55.706;13.186;2022-08-19T14:30:16;317.10;;;293.63;;
40088;SDS011;25793;55.706;13.186;2022-08-19T14:32:46;306.70;;;284.13;;
40088;SDS011;25793;55.706;13.186;2022-08-19T14:35:13;314.80;;;291.98;;
40088;SDS011;25793;55.706;13.186;2022-08-19T14:37:44;310.75;;;288.25;;
40088;SDS011;25793;55.706;13.186;2022-08-19T14:40:16;298.90;;;276.95;;